Aubrey, AR (72311)

3:15 PM CDT on March 24, 2017 (GMT -0500)
marianna | | Change Station
Active Advisory: Wind Advisory

Elev 210 ft 34.77 °N, 90.77 °W | Updated 5 seconds ago

Partly Cloudy
Partly Cloudy
80.3 °F
Feels Like 81 °F
N
9.0
Wind Variable Wind from SSW

Today
High -- | Low -- °F
--% Chance of Precip.
Yesterday
High -- | Low -- °F
Precip. -- in
Pressure 30.10 in
Visibility 10.0 miles
Clouds Clear
Heat Index 81 °F
Dew Point 57 °F
Humidity 45%
Rainfall 0.00 in
Snow Depth Not available.
7:01 AM 7:18 PM
Waning Crescent, 13% visible
METAR KUTA 241955Z AUTO 18017G26KT 10SM CLR 25/13 A3010 RMK AO2 TSNO
Pressure 30.10 in
Visibility 10.0 miles
Clouds Clear
Heat Index 81 °F
Dew Point 57 °F
Humidity 45%
Rainfall 0.00 in
Snow Depth Not available.
7:01 AM 7:18 PM
Waning Crescent, 13% visible
METAR KUTA 241955Z AUTO 18017G26KT 10SM CLR 25/13 A3010 RMK AO2 TSNO

Get Your Daily Forecast Email!

Thanks for signing up!

Be on the lookout for a verification email in your inbox.

You'll start receiving severe weather alerts in your inbox..

×

10-Day Weather Forecast

Almanac

Astronomy

Mar. 24, 2017 Rise Set
Actual Time
Civil Twilight
Nautical Twilight
Astronomical Twilight
Moon
Length of Visible Light
Length of Day
Tomorrow will be .
, % of the Moon is Illuminated

Today's Extremes

State Highs State Lows

Community

WunderPhotos

Upload Photos

1,962,540 photos uploaded!

WunderBlog® & News

Nearby

Air Quality

  Air Quality AQ Index Pollutant
Not available.

Snow Depth

Station Depth Elevation

Earthquake Activity

City Distance Mag. Time & Date
Minimum magnitude displayed is 2.5.

Earthquake Activity

City Distance Mag. Time & Date
Minimum magnitude displayed is 2.5.

Coastal Water Temperatures

Place Temperature

Stations

Nearby Weather Stations

Station Location Temp. Windchill Dew Point Humidity Wind Precip. Elev Updated Type
                   

Watches & Warnings

Wind Advisory
Issued: 12:08 PM CDT Mar. 24, 2017 – National Weather Service

... Wind Advisory now in effect until 4 PM CDT Saturday...

* winds... south to southwest winds of 20 to 30 mph... with gusts
to 40 mph.

* Timing... current through 4 PM CDT Saturday.

* Impacts... high profile vehicles will find difficulty in
driving... especially on east to west oriented highways. Loose
outdoor furniture and items will be vulnerable to the wind.

Precautionary/preparedness actions...

A Wind Advisory means that sustained winds of 25 to 39 mph are
expected... or gusts will range between 40 and 57 mph. Winds this
strong can make driving difficult... especially for high profile
vehicles. Use extra caution.



Jab